createdAt,value
2017-06-22T00:00:48.318Z,1011.38
2017-06-22T00:01:48.344Z,1011.4
2017-06-22T00:02:48.369Z,1011.39
2017-06-22T00:03:48.393Z,1011.39
2017-06-22T00:05:48.445Z,1011.39
2017-06-22T00:06:48.470Z,1011.41
2017-06-22T00:07:48.494Z,1011.43
2017-06-22T00:08:48.521Z,1011.45
2017-06-22T00:09:48.546Z,1011.42
2017-06-22T00:10:48.570Z,1011.43
2017-06-22T00:11:48.595Z,1011.43
2017-06-22T00:12:48.621Z,1011.38
2017-06-22T00:13:48.646Z,1011.34
2017-06-22T00:14:48.671Z,1011.33
2017-06-22T00:15:48.697Z,1011.29
2017-06-22T00:16:48.722Z,1011.35
2017-06-22T00:17:48.747Z,1011.34
2017-06-22T00:18:48.773Z,1011.35
2017-06-22T00:20:48.824Z,1011.34
2017-06-22T00:21:48.849Z,1011.34
2017-06-22T00:22:48.874Z,1011.31
2017-06-22T00:23:48.899Z,1011.29
2017-06-22T00:24:48.925Z,1011.28
2017-06-22T00:25:48.949Z,1011.25
2017-06-22T00:26:48.974Z,1011.27
2017-06-22T00:27:49.000Z,1011.29
2017-06-22T00:28:49.024Z,1011.26
2017-06-22T00:29:49.049Z,1011.27
2017-06-22T00:30:49.076Z,1011.23
2017-06-22T00:31:49.101Z,1011.22
2017-06-22T00:32:49.125Z,1011.24
2017-06-22T00:33:49.150Z,1011.24
2017-06-22T00:34:49.177Z,1011.28
2017-06-22T00:35:49.202Z,1011.25
2017-06-22T00:36:49.226Z,1011.23
2017-06-22T00:37:49.252Z,1011.24
2017-06-22T00:38:49.277Z,1011.28
2017-06-22T00:39:49.302Z,1011.28
2017-06-22T00:40:49.327Z,1011.23
2017-06-22T00:41:49.352Z,1011.25
2017-06-22T00:42:49.377Z,1011.2
2017-06-22T00:43:49.402Z,1011.22
2017-06-22T00:44:49.427Z,1011.18
2017-06-22T00:45:49.453Z,1011.18
2017-06-22T00:46:49.479Z,1011.13
2017-06-22T00:47:49.502Z,1011.12
2017-06-22T00:48:49.528Z,1011.12
2017-06-22T00:49:49.553Z,1011.14
2017-06-22T00:50:49.577Z,1011.15
2017-06-22T00:52:49.628Z,1011.18
2017-06-22T00:53:49.653Z,1011.15
2017-06-22T00:54:49.678Z,1011.14
2017-06-22T00:55:49.703Z,1011.14
2017-06-22T00:56:49.729Z,1011.19
2017-06-22T00:57:49.754Z,1011.16
2017-06-22T00:58:49.778Z,1011.14
2017-06-22T00:59:49.804Z,1011.12
2017-06-22T01:00:49.829Z,1011.15
2017-06-22T01:01:49.853Z,1011.11
2017-06-22T01:02:49.897Z,1011.12
2017-06-22T01:03:49.904Z,1011.06
2017-06-22T01:04:49.929Z,1011.08
2017-06-22T01:05:49.975Z,1011.04
2017-06-22T01:06:49.979Z,1011.04
2017-06-22T01:08:50.030Z,1011.09
2017-06-22T01:09:50.053Z,1011.15
2017-06-22T01:10:50.078Z,1011.12
2017-06-22T01:11:50.104Z,1011.09
2017-06-22T01:12:50.128Z,1011.07
2017-06-22T01:13:50.153Z,1011.03
2017-06-22T01:14:50.179Z,1011.04
2017-06-22T01:15:50.204Z,1011.01
2017-06-22T01:16:50.228Z,1011.02
2017-06-22T01:17:50.253Z,1010.98
2017-06-22T01:18:50.278Z,1010.95
2017-06-22T01:19:50.304Z,1010.9
2017-06-22T01:20:50.328Z,1010.92
2017-06-22T01:21:50.353Z,1010.86
2017-06-22T01:22:50.428Z,1010.88
2017-06-22T01:24:50.427Z,1010.81
2017-06-22T01:25:50.452Z,1010.83
2017-06-22T01:26:50.477Z,1010.82
2017-06-22T01:27:50.501Z,1010.8
2017-06-22T01:28:50.526Z,1010.76
2017-06-22T01:29:50.551Z,1010.73
2017-06-22T01:30:50.576Z,1010.71
2017-06-22T01:31:50.601Z,1010.72
2017-06-22T01:32:50.625Z,1010.73
2017-06-22T01:33:50.650Z,1010.74
2017-06-22T01:34:50.674Z,1010.74
2017-06-22T01:35:50.700Z,1010.78
2017-06-22T01:36:50.725Z,1010.76
2017-06-22T01:37:50.750Z,1010.76
2017-06-22T01:38:50.774Z,1010.8
2017-06-22T01:40:50.824Z,1010.78
2017-06-22T01:41:50.849Z,1010.78
2017-06-22T01:42:50.873Z,1010.81
2017-06-22T01:43:50.898Z,1010.83
2017-06-22T01:44:50.926Z,1010.8
2017-06-22T01:45:50.947Z,1010.79
2017-06-22T01:46:50.972Z,1010.84
2017-06-22T01:47:50.997Z,1010.83
2017-06-22T01:48:51.022Z,1010.82
2017-06-22T01:49:51.046Z,1010.87
2017-06-22T01:50:51.071Z,1010.87
2017-06-22T01:51:51.096Z,1010.88
2017-06-22T01:52:51.121Z,1010.87
2017-06-22T01:53:51.145Z,1010.89
2017-06-22T01:55:51.196Z,1010.9
2017-06-22T01:56:51.220Z,1010.94
2017-06-22T01:57:51.244Z,1010.93
2017-06-22T01:58:51.270Z,1010.87
2017-06-22T01:59:51.295Z,1010.82
2017-06-22T02:00:51.318Z,1010.82
2017-06-22T02:01:51.344Z,1010.82
2017-06-22T02:02:51.370Z,1010.81
2017-06-22T02:03:51.394Z,1010.87
2017-06-22T02:04:51.417Z,1010.86
2017-06-22T02:05:51.442Z,1010.84
2017-06-22T02:06:51.466Z,1010.83
2017-06-22T02:07:51.541Z,1010.82
2017-06-22T02:08:51.515Z,1010.79
2017-06-22T02:09:51.541Z,1010.82
2017-06-22T02:10:51.565Z,1010.78
2017-06-22T02:11:51.589Z,1010.75
2017-06-22T02:12:51.614Z,1010.75
2017-06-22T02:13:51.639Z,1010.8
2017-06-22T02:14:51.663Z,1010.8
2017-06-22T02:15:51.687Z,1010.75
2017-06-22T02:16:51.712Z,1010.76
2017-06-22T02:17:51.738Z,1010.77
2017-06-22T02:18:51.761Z,1010.79
2017-06-22T02:19:51.786Z,1010.8
2017-06-22T02:20:51.811Z,1010.76
2017-06-22T02:21:51.836Z,1010.78
2017-06-22T02:22:51.859Z,1010.76
2017-06-22T02:23:51.884Z,1010.76
2017-06-22T02:24:51.909Z,1010.75
2017-06-22T02:25:51.933Z,1010.67
2017-06-22T02:27:51.982Z,1010.63
2017-06-22T02:28:52.008Z,1010.62
2017-06-22T02:29:52.031Z,1010.61
2017-06-22T02:30:52.056Z,1010.61
2017-06-22T02:31:52.081Z,1010.54
2017-06-22T02:32:52.105Z,1010.53
2017-06-22T02:33:52.129Z,1010.52
2017-06-22T02:34:52.154Z,1010.52
2017-06-22T02:35:52.178Z,1010.51
2017-06-22T02:36:52.202Z,1010.53
2017-06-22T02:37:52.227Z,1010.49
2017-06-22T02:38:52.252Z,1010.5
2017-06-22T02:39:52.276Z,1010.53
2017-06-22T02:40:52.300Z,1010.51
2017-06-22T02:41:52.325Z,1010.59
2017-06-22T02:43:52.374Z,1010.56
2017-06-22T02:44:52.398Z,1010.61
2017-06-22T02:45:52.423Z,1010.63
2017-06-22T02:46:52.447Z,1010.6
2017-06-22T02:47:52.470Z,1010.62
2017-06-22T02:48:52.495Z,1010.62
2017-06-22T02:49:52.520Z,1010.66
2017-06-22T02:50:52.545Z,1010.63
2017-06-22T02:51:52.568Z,1010.65
2017-06-22T02:52:52.592Z,1010.64
2017-06-22T02:53:52.617Z,1010.62
2017-06-22T02:54:52.642Z,1010.66
2017-06-22T02:55:52.666Z,1010.65
2017-06-22T02:56:52.690Z,1010.64
2017-06-22T02:57:52.714Z,1010.64
2017-06-22T02:59:52.763Z,1010.62
2017-06-22T03:00:52.787Z,1010.61
2017-06-22T03:01:52.812Z,1010.63
2017-06-22T03:02:52.834Z,1010.63
2017-06-22T03:03:52.860Z,1010.6
2017-06-22T03:04:52.886Z,1010.59
2017-06-22T03:05:52.909Z,1010.63
2017-06-22T03:06:52.933Z,1010.59
2017-06-22T03:07:52.957Z,1010.61
2017-06-22T03:08:52.982Z,1010.63
2017-06-22T03:09:53.005Z,1010.62
2017-06-22T03:10:53.030Z,1010.6
2017-06-22T03:11:53.055Z,1010.6
2017-06-22T03:12:53.079Z,1010.55
2017-06-22T03:13:53.102Z,1010.58
2017-06-22T03:15:53.152Z,1010.55
2017-06-22T03:16:53.176Z,1010.55
2017-06-22T03:17:53.200Z,1010.53
2017-06-22T03:18:53.224Z,1010.51
2017-06-22T03:19:53.248Z,1010.49
2017-06-22T03:20:53.272Z,1010.53
2017-06-22T03:21:53.297Z,1010.55
2017-06-22T03:22:53.321Z,1010.52
2017-06-22T03:23:53.345Z,1010.53
2017-06-22T03:24:53.369Z,1010.5
2017-06-22T03:25:53.393Z,1010.48
2017-06-22T03:26:53.418Z,1010.44
2017-06-22T03:27:53.443Z,1010.43
2017-06-22T03:28:53.467Z,1010.43
2017-06-22T03:30:53.516Z,1010.43
2017-06-22T03:31:53.540Z,1010.47
2017-06-22T03:32:53.563Z,1010.44
2017-06-22T03:33:53.588Z,1010.44
2017-06-22T03:34:53.612Z,1010.48
2017-06-22T03:35:53.636Z,1010.44
2017-06-22T03:36:53.661Z,1010.43
2017-06-22T03:37:53.704Z,1010.41
2017-06-22T03:38:53.709Z,1010.42
2017-06-22T03:39:53.733Z,1010.43
2017-06-22T03:40:53.758Z,1010.42
2017-06-22T03:41:53.781Z,1010.43
2017-06-22T03:42:53.805Z,1010.43
2017-06-22T03:43:53.829Z,1010.46
2017-06-22T03:44:53.854Z,1010.42
2017-06-22T03:45:53.879Z,1010.43
2017-06-22T03:46:53.902Z,1010.43
2017-06-22T03:47:53.926Z,1010.42
2017-06-22T03:48:53.951Z,1010.42
2017-06-22T03:49:53.974Z,1010.42
2017-06-22T03:50:53.999Z,1010.39
2017-06-22T03:51:54.023Z,1010.39
2017-06-22T03:52:54.048Z,1010.43
2017-06-22T03:53:54.072Z,1010.45
2017-06-22T03:54:54.096Z,1010.45
2017-06-22T03:55:54.121Z,1010.5
2017-06-22T03:56:54.145Z,1010.42
2017-06-22T03:57:54.169Z,1010.45
2017-06-22T03:58:54.193Z,1010.39
2017-06-22T03:59:54.219Z,1010.39
2017-06-22T04:00:54.242Z,1010.41
2017-06-22T04:02:54.291Z,1010.38
2017-06-22T04:03:54.316Z,1010.39
2017-06-22T04:04:54.342Z,1010.39
2017-06-22T04:05:54.364Z,1010.38
2017-06-22T04:06:54.389Z,1010.41
2017-06-22T04:07:54.414Z,1010.38
2017-06-22T04:08:54.437Z,1010.38
2017-06-22T04:09:54.463Z,1010.41
2017-06-22T04:10:54.487Z,1010.58
2017-06-22T04:11:54.511Z,1010.72
2017-06-22T04:12:54.536Z,1010.76
2017-06-22T04:13:54.561Z,1010.81
2017-06-22T04:14:54.586Z,1010.87
2017-06-22T04:15:54.611Z,1010.87
2017-06-22T04:16:54.637Z,1010.91
2017-06-22T04:18:54.689Z,1010.94
2017-06-22T04:19:54.714Z,1010.94
2017-06-22T04:20:54.741Z,1010.99
2017-06-22T04:21:54.768Z,1010.95
2017-06-22T04:22:54.795Z,1011
2017-06-22T04:23:54.822Z,1010.96
2017-06-22T04:24:54.850Z,1010.98
2017-06-22T04:25:54.878Z,1011
2017-06-22T04:26:54.905Z,1010.98
2017-06-22T04:27:54.934Z,1010.97
2017-06-22T04:28:54.964Z,1010.94
2017-06-22T04:29:54.992Z,1011
2017-06-22T04:30:55.020Z,1010.97
2017-06-22T04:31:55.050Z,1010.99
2017-06-22T04:32:55.080Z,1011.01
2017-06-22T04:34:55.139Z,1011
2017-06-22T04:35:55.171Z,1010.99
2017-06-22T04:36:55.200Z,1010.99
2017-06-22T04:37:55.230Z,1011.05
2017-06-22T04:38:55.261Z,1010.99
2017-06-22T04:39:55.292Z,1011.01
2017-06-22T04:40:55.324Z,1011.02
2017-06-22T04:41:55.354Z,1011.02
2017-06-22T04:42:55.386Z,1010.98
2017-06-22T04:43:55.418Z,1010.98
2017-06-22T04:44:55.449Z,1010.97
2017-06-22T04:45:55.493Z,1010.96
2017-06-22T04:46:55.514Z,1010.93
2017-06-22T04:47:55.546Z,1010.93
2017-06-22T04:48:55.578Z,1010.9
2017-06-22T04:50:55.645Z,1010.86
2017-06-22T04:51:55.677Z,1010.78
2017-06-22T04:52:55.710Z,1010.76
2017-06-22T04:53:55.743Z,1010.73
2017-06-22T04:54:55.777Z,1010.71
2017-06-22T04:55:55.810Z,1010.65
2017-06-22T04:56:55.844Z,1010.63
2017-06-22T04:57:55.878Z,1010.58
2017-06-22T04:58:55.912Z,1010.57
2017-06-22T04:59:55.945Z,1010.51
2017-06-22T05:00:55.983Z,1010.5
2017-06-22T05:01:56.014Z,1010.54
2017-06-22T05:02:56.049Z,1010.48
2017-06-22T05:03:56.083Z,1010.5
2017-06-22T05:05:56.153Z,1010.54
2017-06-22T05:06:56.186Z,1010.54
2017-06-22T05:07:56.221Z,1010.51
2017-06-22T05:08:56.256Z,1010.54
2017-06-22T05:09:56.291Z,1010.59
2017-06-22T05:10:56.375Z,1010.65
2017-06-22T05:11:56.366Z,1010.63
2017-06-22T05:12:56.396Z,1010.66
2017-06-22T05:13:56.430Z,1010.6
2017-06-22T05:14:56.466Z,1010.64
2017-06-22T05:15:56.501Z,1010.6
2017-06-22T05:16:56.537Z,1010.6
2017-06-22T05:17:56.571Z,1010.64
2017-06-22T05:18:56.608Z,1010.75
2017-06-22T05:19:56.643Z,1010.76
2017-06-22T05:20:56.679Z,1010.77
2017-06-22T05:21:56.715Z,1010.81
2017-06-22T05:22:56.750Z,1010.85
2017-06-22T05:23:56.786Z,1010.92
2017-06-22T05:24:56.820Z,1010.9
2017-06-22T05:25:56.860Z,1010.88
2017-06-22T05:26:56.894Z,1010.82
2017-06-22T05:27:56.928Z,1010.79
2017-06-22T05:28:56.964Z,1010.78
2017-06-22T05:29:57.000Z,1010.77
2017-06-22T05:30:57.036Z,1010.73
2017-06-22T05:31:57.072Z,1010.75
2017-06-22T05:32:57.158Z,1010.73
2017-06-22T05:33:57.144Z,1010.76
2017-06-22T05:34:57.182Z,1010.75
2017-06-22T05:35:57.217Z,1010.75
2017-06-22T05:37:57.290Z,1010.78
2017-06-22T05:38:57.328Z,1010.85
2017-06-22T05:39:57.363Z,1010.87
2017-06-22T05:40:57.400Z,1010.9
2017-06-22T05:41:57.438Z,1010.91
2017-06-22T05:42:57.475Z,1010.92
2017-06-22T05:43:57.511Z,1010.86
2017-06-22T05:44:57.553Z,1010.9
2017-06-22T05:45:57.585Z,1010.85
2017-06-22T05:46:57.622Z,1010.84
2017-06-22T05:47:57.659Z,1010.77
2017-06-22T05:48:57.696Z,1010.77
2017-06-22T05:49:57.734Z,1010.74
2017-06-22T05:50:57.777Z,1010.67
2017-06-22T05:51:57.808Z,1010.79
2017-06-22T05:53:57.884Z,1010.81
2017-06-22T05:54:57.921Z,1010.79
2017-06-22T05:55:57.959Z,1010.77
2017-06-22T05:56:57.997Z,1010.76
2017-06-22T05:57:58.034Z,1010.74
2017-06-22T05:58:58.072Z,1010.75
2017-06-22T05:59:58.110Z,1010.75
2017-06-22T06:00:58.198Z,1010.78
2017-06-22T06:01:58.186Z,1010.79
2017-06-22T06:02:58.224Z,1010.74
2017-06-22T06:03:58.263Z,1010.71
2017-06-22T06:04:58.301Z,1010.71
2017-06-22T06:05:58.338Z,1010.62
2017-06-22T06:06:58.377Z,1010.62
2017-06-22T06:07:58.415Z,1010.57
2017-06-22T06:09:58.492Z,1010.52
2017-06-22T06:10:58.531Z,1010.5
2017-06-22T06:11:58.570Z,1010.53
2017-06-22T06:12:58.607Z,1010.56
2017-06-22T06:13:58.646Z,1010.58
2017-06-22T06:14:58.686Z,1010.65
2017-06-22T06:15:58.725Z,1010.68
2017-06-22T06:16:58.762Z,1010.73
2017-06-22T06:17:58.801Z,1010.71
2017-06-22T06:18:58.840Z,1010.75
2017-06-22T06:19:58.878Z,1010.73
2017-06-22T06:20:58.918Z,1010.76
2017-06-22T06:21:58.957Z,1010.72
2017-06-22T06:22:58.997Z,1010.68
2017-06-22T06:23:59.036Z,1010.7
2017-06-22T06:25:59.115Z,1010.67
2017-06-22T06:26:59.154Z,1010.6
2017-06-22T06:27:59.193Z,1010.69
2017-06-22T06:28:59.232Z,1010.74
2017-06-22T06:29:59.271Z,1010.75
2017-06-22T06:30:59.361Z,1010.6
2017-06-22T06:31:59.350Z,1010.65
2017-06-22T06:32:59.389Z,1010.82
2017-06-22T06:33:59.428Z,1010.91
2017-06-22T06:34:59.467Z,1010.84
2017-06-22T06:35:59.507Z,1010.27
2017-06-22T06:36:59.546Z,1010.66
2017-06-22T06:37:59.584Z,1011.06
2017-06-22T06:38:59.624Z,1011.1
2017-06-22T06:40:59.702Z,1011.03
2017-06-22T06:41:59.740Z,1011.06
2017-06-22T06:42:59.778Z,1011.05
2017-06-22T06:43:59.818Z,1010.98
2017-06-22T06:44:59.856Z,1010.93
2017-06-22T06:45:59.894Z,1010.99
2017-06-22T06:46:59.933Z,1011.08
2017-06-22T06:47:59.972Z,1011.04
2017-06-22T06:49:00.012Z,1011.04
2017-06-22T06:50:00.050Z,1010.99
2017-06-22T06:51:00.094Z,1010.91
2017-06-22T06:52:00.131Z,1010.34
2017-06-22T06:53:00.167Z,1010.65
2017-06-22T06:54:00.206Z,1010.3
2017-06-22T06:55:00.246Z,1010.22
2017-06-22T06:56:00.285Z,1010.21
2017-06-22T06:57:00.322Z,1010.22
2017-06-22T06:58:00.362Z,1010.32
2017-06-22T06:59:00.400Z,1010.29
2017-06-22T07:00:00.438Z,1010.42
2017-06-22T07:01:00.476Z,1010.31
2017-06-22T07:02:00.527Z,1010.37
2017-06-22T07:03:00.554Z,1010.43
2017-06-22T07:04:00.591Z,1010.6
2017-06-22T07:05:00.629Z,1010.79
2017-06-22T07:06:00.671Z,1010.89
2017-06-22T07:07:00.704Z,1010.57
2017-06-22T07:08:00.740Z,1010.44
2017-06-22T07:09:00.778Z,1010.44
2017-06-22T07:10:00.817Z,1010.43
2017-06-22T07:11:00.853Z,1010.41
2017-06-22T07:13:00.928Z,1010.23
2017-06-22T07:14:00.970Z,1010.37
2017-06-22T07:15:01.002Z,1010.3
2017-06-22T07:16:01.045Z,1010.4
2017-06-22T07:17:01.077Z,1010.49
2017-06-22T07:18:01.115Z,1010.3
2017-06-22T07:19:01.150Z,1010.15
2017-06-22T07:20:01.187Z,1010.1
2017-06-22T07:21:01.225Z,1010.17
2017-06-22T07:22:01.260Z,1010.22
2017-06-22T07:23:01.298Z,1009.99
2017-06-22T07:24:01.334Z,1010.06
2017-06-22T07:25:01.371Z,1010.03
2017-06-22T07:26:01.406Z,1009.93
2017-06-22T07:27:01.444Z,1009.96
2017-06-22T07:29:01.517Z,1009.81
2017-06-22T07:30:01.551Z,1009.77
2017-06-22T07:31:01.588Z,1009.75
2017-06-22T07:32:01.623Z,1009.72
2017-06-22T07:33:01.659Z,1009.67
2017-06-22T07:34:01.698Z,1009.7
2017-06-22T07:35:01.730Z,1009.67
2017-06-22T07:36:01.766Z,1009.66
2017-06-22T07:37:01.801Z,1009.69
2017-06-22T07:38:01.836Z,1009.7
2017-06-22T07:39:01.872Z,1009.69
2017-06-22T07:40:01.907Z,1009.73
2017-06-22T07:41:01.940Z,1009.66
2017-06-22T07:42:01.975Z,1009.63
2017-06-22T07:43:02.010Z,1009.64
2017-06-22T07:45:02.096Z,1009.58
2017-06-22T07:46:02.114Z,1009.59
2017-06-22T07:47:02.148Z,1009.58
2017-06-22T07:48:02.181Z,1009.59
2017-06-22T07:49:02.215Z,1009.56
2017-06-22T07:50:02.251Z,1009.57
2017-06-22T07:51:02.285Z,1009.52
2017-06-22T07:52:02.317Z,1009.48
2017-06-22T07:53:02.351Z,1009.43
2017-06-22T07:54:02.385Z,1009.44
2017-06-22T07:55:02.419Z,1009.48
2017-06-22T07:56:02.452Z,1009.5
2017-06-22T07:57:02.486Z,1009.48
2017-06-22T07:58:02.520Z,1009.5
2017-06-22T07:59:02.552Z,1009.5
2017-06-22T08:01:02.620Z,1009.52
2017-06-22T08:02:02.653Z,1009.47
2017-06-22T08:03:02.687Z,1009.44
2017-06-22T08:04:02.721Z,1009.41
2017-06-22T08:05:02.753Z,1009.44
2017-06-22T08:06:02.787Z,1009.42
2017-06-22T08:07:02.820Z,1009.38
2017-06-22T08:08:02.854Z,1009.38
2017-06-22T08:09:02.888Z,1009.35
2017-06-22T08:10:02.920Z,1009.32
2017-06-22T08:11:02.953Z,1009.35
2017-06-22T08:12:02.987Z,1009.35
2017-06-22T08:13:03.021Z,1009.35
2017-06-22T08:14:03.054Z,1009.34
2017-06-22T08:16:03.120Z,1009.3
2017-06-22T08:17:03.153Z,1009.27
2017-06-22T08:18:03.186Z,1009.24
2017-06-22T08:19:03.219Z,1009.2
2017-06-22T08:20:03.252Z,1009.15
2017-06-22T08:21:03.285Z,1009.17
2017-06-22T08:22:03.318Z,1009.12
2017-06-22T08:23:03.351Z,1009.14
2017-06-22T08:24:03.385Z,1009.13
2017-06-22T08:25:03.466Z,1009.17
2017-06-22T08:26:03.449Z,1009.18
2017-06-22T08:27:03.482Z,1009.25
2017-06-22T08:28:03.515Z,1009.57
2017-06-22T08:29:03.547Z,1009.75
2017-06-22T08:30:03.581Z,1009.8
2017-06-22T08:31:03.614Z,1009.84
2017-06-22T08:32:03.697Z,1009.9
2017-06-22T08:33:03.680Z,1009.89
2017-06-22T08:34:03.714Z,1009.83
2017-06-22T08:35:03.747Z,1009.83
2017-06-22T08:36:03.781Z,1009.77
2017-06-22T08:37:03.814Z,1009.68
2017-06-22T08:38:03.900Z,1009.67
2017-06-22T08:39:03.883Z,1009.64
2017-06-22T08:40:03.919Z,1009.69
2017-06-22T08:41:03.953Z,1009.77
2017-06-22T08:42:03.989Z,1009.95
2017-06-22T08:43:04.022Z,1009.95
2017-06-22T08:44:04.057Z,1009.86
2017-06-22T08:45:04.092Z,1009.81
2017-06-22T08:46:04.153Z,1009.86
2017-06-22T08:48:04.198Z,1009.78
2017-06-22T08:49:04.234Z,1009.77
2017-06-22T08:50:04.270Z,1009.65
2017-06-22T08:51:04.305Z,1009.46
2017-06-22T08:52:04.341Z,1009.35
2017-06-22T08:53:04.376Z,1009.36
2017-06-22T08:54:04.411Z,1009.29
2017-06-22T08:55:04.447Z,1009.33
2017-06-22T08:56:04.483Z,1009.28
2017-06-22T08:57:04.518Z,1009.25
2017-06-22T08:58:04.555Z,1009.25
2017-06-22T08:59:04.592Z,1009.21
2017-06-22T09:00:04.628Z,1009.22
2017-06-22T09:01:04.663Z,1009.2
2017-06-22T09:02:04.700Z,1009.15
2017-06-22T09:04:04.772Z,1009.12
2017-06-22T09:05:04.808Z,1009.16
2017-06-22T09:06:04.844Z,1009.15
2017-06-22T09:07:04.881Z,1009.14
2017-06-22T09:08:04.916Z,1009.13
2017-06-22T09:09:04.953Z,1009.1
2017-06-22T09:10:04.989Z,1009.08
2017-06-22T09:11:05.028Z,1008.99
2017-06-22T09:12:05.061Z,1008.94
2017-06-22T09:13:05.099Z,1008.94
2017-06-22T09:14:05.134Z,1008.93
2017-06-22T09:15:05.171Z,1008.9
2017-06-22T09:16:05.206Z,1008.95
2017-06-22T09:17:05.241Z,1008.93
2017-06-22T09:18:05.281Z,1008.93
2017-06-22T09:20:05.349Z,1008.87
2017-06-22T09:21:05.386Z,1008.83
2017-06-22T09:22:05.422Z,1008.8
2017-06-22T09:23:05.459Z,1008.81
2017-06-22T09:24:05.494Z,1008.85
2017-06-22T09:25:05.531Z,1008.8
2017-06-22T09:26:05.567Z,1008.75
2017-06-22T09:27:05.603Z,1008.76
2017-06-22T09:28:05.639Z,1008.7
2017-06-22T09:29:05.675Z,1008.66
2017-06-22T09:30:05.711Z,1008.65
2017-06-22T09:31:05.746Z,1008.63
2017-06-22T09:32:05.786Z,1008.58
2017-06-22T09:33:05.820Z,1008.57
2017-06-22T09:34:05.855Z,1008.56
2017-06-22T09:36:05.926Z,1008.52
2017-06-22T09:37:05.964Z,1008.54
2017-06-22T09:38:05.998Z,1008.52
2017-06-22T09:39:06.035Z,1008.5
2017-06-22T09:40:06.072Z,1008.42
2017-06-22T09:41:06.107Z,1008.43
2017-06-22T09:42:06.143Z,1008.4
2017-06-22T09:43:06.179Z,1008.34
2017-06-22T09:44:06.215Z,1008.37
2017-06-22T09:45:06.250Z,1008.37
2017-06-22T09:46:06.286Z,1008.31
2017-06-22T09:47:06.323Z,1008.28
2017-06-22T09:48:06.358Z,1008.29
2017-06-22T09:49:06.394Z,1008.38
2017-06-22T09:51:06.466Z,1008.3
2017-06-22T09:52:06.502Z,1008.3
2017-06-22T09:53:06.538Z,1008.33
2017-06-22T09:54:06.573Z,1008.3
2017-06-22T09:55:06.609Z,1008.28
2017-06-22T09:56:06.644Z,1008.25
2017-06-22T09:57:06.679Z,1008.23
2017-06-22T09:58:06.716Z,1008.24
2017-06-22T09:59:06.751Z,1008.23
2017-06-22T10:00:06.787Z,1008.27
2017-06-22T10:01:06.822Z,1008.16
2017-06-22T10:02:06.858Z,1008.16
2017-06-22T10:03:06.894Z,1008.05
2017-06-22T10:04:06.930Z,1008.03
2017-06-22T10:05:06.966Z,1007.99
2017-06-22T10:06:07.001Z,1008.06
2017-06-22T10:07:07.037Z,1008.04
2017-06-22T10:08:07.072Z,1008
2017-06-22T10:09:07.108Z,1008
2017-06-22T10:10:07.145Z,1007.94
2017-06-22T10:11:07.179Z,1007.94
2017-06-22T10:12:07.215Z,1007.94
2017-06-22T10:13:07.250Z,1007.93
2017-06-22T10:14:07.285Z,1007.93
2017-06-22T10:15:07.321Z,1007.91
2017-06-22T10:16:07.357Z,1007.98
2017-06-22T10:17:07.393Z,1008.03
2017-06-22T10:18:07.427Z,1008.08
2017-06-22T10:19:07.462Z,1008.2
2017-06-22T10:20:07.499Z,1008.23
2017-06-22T10:21:07.533Z,1008.23
2017-06-22T10:23:07.605Z,1008.08
2017-06-22T10:24:07.638Z,1007.98
2017-06-22T10:25:07.673Z,1007.95
2017-06-22T10:26:07.708Z,1007.9
2017-06-22T10:27:07.744Z,1007.94
2017-06-22T10:28:07.779Z,1007.96
2017-06-22T10:29:07.813Z,1007.95
2017-06-22T10:30:07.849Z,1007.91
2017-06-22T10:31:07.885Z,1007.93
2017-06-22T10:32:07.919Z,1007.87
2017-06-22T10:33:07.954Z,1007.84
2017-06-22T10:34:07.989Z,1007.8
2017-06-22T10:35:08.025Z,1007.75
2017-06-22T10:36:08.059Z,1007.74
2017-06-22T10:37:08.094Z,1007.76
2017-06-22T10:39:08.165Z,1007.72
2017-06-22T10:40:08.200Z,1007.71
2017-06-22T10:41:08.234Z,1007.67
2017-06-22T10:42:08.270Z,1007.67
2017-06-22T10:43:08.304Z,1007.71
2017-06-22T10:44:08.340Z,1007.74
2017-06-22T10:45:08.402Z,1007.72
2017-06-22T10:46:08.410Z,1007.73
2017-06-22T10:47:08.444Z,1007.76
2017-06-22T10:48:08.480Z,1007.79
2017-06-22T10:49:08.515Z,1007.79
2017-06-22T10:50:08.551Z,1007.79
2017-06-22T10:51:08.585Z,1007.76
2017-06-22T10:52:08.620Z,1007.7
2017-06-22T10:53:08.655Z,1007.71
2017-06-22T10:55:08.725Z,1007.7
2017-06-22T10:56:08.760Z,1007.7
2017-06-22T10:57:08.845Z,1007.7
2017-06-22T10:58:08.829Z,1007.74
2017-06-22T10:59:08.864Z,1007.78
2017-06-22T11:00:08.900Z,1007.76
2017-06-22T11:01:08.934Z,1007.8
2017-06-22T11:02:08.968Z,1007.83
2017-06-22T11:03:09.003Z,1007.86
2017-06-22T11:04:09.054Z,1007.84
2017-06-22T11:05:09.091Z,1007.89
2017-06-22T11:06:09.121Z,1007.92
2017-06-22T11:07:09.155Z,1007.92
2017-06-22T11:08:09.176Z,1007.95
2017-06-22T11:09:09.222Z,1007.98
2017-06-22T11:11:09.279Z,1007.9
2017-06-22T11:12:09.314Z,1007.92
2017-06-22T11:13:09.360Z,1007.92
2017-06-22T11:14:09.383Z,1007.93
2017-06-22T11:15:09.417Z,1007.94
2017-06-22T11:16:09.449Z,1007.9
2017-06-22T11:17:09.484Z,1007.96
2017-06-22T11:18:09.519Z,1007.96
2017-06-22T11:19:09.553Z,1007.96
2017-06-22T11:20:09.587Z,1007.91
2017-06-22T11:21:09.622Z,1007.9
2017-06-22T11:22:09.655Z,1007.93
2017-06-22T11:23:09.690Z,1007.92
2017-06-22T11:24:09.874Z,1007.92
2017-06-22T11:26:09.793Z,1007.84
2017-06-22T11:27:09.825Z,1007.78
2017-06-22T11:28:09.860Z,1007.75
2017-06-22T11:29:09.894Z,1007.75
2017-06-22T11:30:09.930Z,1007.72
2017-06-22T11:31:09.961Z,1007.65
2017-06-22T11:32:09.994Z,1007.71
2017-06-22T11:33:10.029Z,1007.67
2017-06-22T11:34:10.062Z,1007.67
2017-06-22T11:35:10.094Z,1007.76
2017-06-22T11:36:10.129Z,1007.76
2017-06-22T11:37:10.163Z,1007.76
2017-06-22T11:38:10.195Z,1007.74
2017-06-22T11:39:10.230Z,1007.73
2017-06-22T11:40:10.263Z,1007.74
2017-06-22T11:41:10.296Z,1007.75
2017-06-22T11:42:10.329Z,1007.8
2017-06-22T11:43:10.362Z,1007.82
2017-06-22T11:44:10.395Z,1007.83
2017-06-22T11:45:10.429Z,1007.86
2017-06-22T11:46:10.463Z,1007.81
2017-06-22T11:47:10.497Z,1007.78
2017-06-22T11:48:10.528Z,1007.7
2017-06-22T11:49:10.560Z,1007.65
2017-06-22T11:50:10.593Z,1007.65
2017-06-22T11:51:10.626Z,1007.66
2017-06-22T11:52:10.660Z,1007.64
2017-06-22T11:53:10.691Z,1007.66
2017-06-22T11:54:10.725Z,1007.67
2017-06-22T11:55:10.759Z,1007.71
2017-06-22T11:56:10.791Z,1007.75
2017-06-22T11:58:10.856Z,1007.77
2017-06-22T11:59:10.889Z,1007.72
2017-06-22T12:00:10.921Z,1007.8
2017-06-22T12:01:10.954Z,1007.81
2017-06-22T12:02:10.987Z,1007.78
2017-06-22T12:03:11.019Z,1007.79
2017-06-22T12:04:11.050Z,1007.79
2017-06-22T12:05:11.084Z,1007.82
2017-06-22T12:06:11.117Z,1007.88
2017-06-22T12:07:11.148Z,1007.98
2017-06-22T12:08:11.180Z,1007.99
2017-06-22T12:09:11.213Z,1008.08
2017-06-22T12:10:11.245Z,1008.11
2017-06-22T12:11:11.277Z,1008.17
2017-06-22T12:12:11.309Z,1008.19
2017-06-22T12:14:11.375Z,1008.17
2017-06-22T12:15:11.406Z,1008.13
2017-06-22T12:16:11.437Z,1008.11
2017-06-22T12:17:11.469Z,1008.08
2017-06-22T12:18:11.500Z,1008.04
2017-06-22T12:19:11.532Z,1008.02
2017-06-22T12:20:11.564Z,1008
2017-06-22T12:21:11.596Z,1008.04
2017-06-22T12:22:11.628Z,1008.1
2017-06-22T12:23:11.660Z,1008.16
2017-06-22T12:24:11.692Z,1008.18
2017-06-22T12:25:11.724Z,1008.09
2017-06-22T12:26:11.755Z,1008
2017-06-22T12:27:11.787Z,1007.99
2017-06-22T12:28:11.819Z,1007.95
2017-06-22T12:30:11.881Z,1007.97
2017-06-22T12:31:11.913Z,1008.18
2017-06-22T12:32:11.945Z,1008.48
2017-06-22T12:33:11.976Z,1008.69
2017-06-22T12:34:12.006Z,1008.73
2017-06-22T12:35:12.038Z,1008.74
2017-06-22T12:36:12.069Z,1008.83
2017-06-22T12:37:12.100Z,1008.99
2017-06-22T12:38:12.131Z,1009.18
2017-06-22T12:39:12.162Z,1009.37
2017-06-22T12:40:12.192Z,1009.6
2017-06-22T12:41:12.223Z,1009.79
2017-06-22T12:42:12.257Z,1010.04
2017-06-22T12:43:12.285Z,1010.22
2017-06-22T12:44:12.314Z,1010.41
2017-06-22T12:46:12.376Z,1010.65
2017-06-22T12:47:12.407Z,1010.9
2017-06-22T12:48:12.436Z,1011.11
2017-06-22T12:49:12.466Z,1011.15
2017-06-22T12:50:12.497Z,1011.27